Sierra de la Ventana, Argentina
Current Conditions -  °F | °C
As of 7:00 AM on Saturday 25 Oct 2014 (Local Time) from SAZM Reporting Station
Haze Haze  
Wind Chill: 59°   Ceiling: 1500
Heat Index: 59°   Visibility: 1.2mi
Dew Point: 55°   Wind: 6mph
Humidity: 88%   Direction: 320°NW
Pressure: 30"   Gusts: NA
Location:  38.12°S, 61.77°W
Report Text: SAZM 251000Z 32005KT 2000 BR SCT008 OVC01515/13 Q1016
Loading
Personal Weather Stations






























Interactive Weather Map
Tropical Storm Tracking
New forecast layout! Learn more

10-Day Weather Forecast

Advertisements
Track Severe Weather on mobile